LIRZ/PEG METAR and TAF weather

Enter ICAO airport designator
Station Type Date Time Source
LIRZ METAR 2021/01/20 21:50 UTC NOAA

LIRZ 202150Z AUTO VRB02KT //// // BKN031/// BKN040/// 06/05 Q1020


Station Type Date Time Source
LIRZ Decoded METAR 2021/01/20 21:50 UTC NOAA

Perugia, Italy (LIRZ) 43-05N 012-30E 205M
Jan 20, 2021 - 04:50 PM EST / 2021.01.20 2150 UTC
Wind: Variable at 2 MPH (2 KT):0
Sky conditions: mostly cloudy
Temperature: 42 F (6 C)
Dew Point: 41 F (5 C)
Relative Humidity: 93%
Pressure (altimeter): 30.12 in. Hg (1020 hPa)
ob: LIRZ 202150Z AUTO VRB02KT //// // BKN031/// BKN040/// 06/05 Q1020
cycle: 22

Station Type Date Time Source
LIRZ TAF 2021/01/20 18:42 UTC NOAA

TAF LIRZ 201738Z 2018/2118 VRB05KT 9999 SCT030
BECMG 2106/2108 19012KT
TEMPO 2112/2118 SHRA

Example: see airport list